sensor_id;sensor_type;location;lat;lon;timestamp;P1;durP1;ratioP1;P2;durP2;ratioP2
9449;SDS011;4763;48.370;10.874;2023-06-05T00:01:46;6.43;;;3.70;;
9449;SDS011;4763;48.370;10.874;2023-06-05T00:04:23;5.03;;;3.80;;
9449;SDS011;4763;48.370;10.874;2023-06-05T00:06:50;8.90;;;3.83;;
9449;SDS011;4763;48.370;10.874;2023-06-05T00:09:17;10.63;;;3.53;;
9449;SDS011;4763;48.370;10.874;2023-06-05T00:11:49;7.00;;;3.30;;
9449;SDS011;4763;48.370;10.874;2023-06-05T00:14:16;4.53;;;3.30;;
9449;SDS011;4763;48.370;10.874;2023-06-05T00:16:42;5.57;;;3.50;;
9449;SDS011;4763;48.370;10.874;2023-06-05T00:19:10;6.80;;;3.40;;
9449;SDS011;4763;48.370;10.874;2023-06-05T00:21:37;11.77;;;4.10;;
9449;SDS011;4763;48.370;10.874;2023-06-05T00:24:04;5.83;;;3.70;;
9449;SDS011;4763;48.370;10.874;2023-06-05T00:26:31;6.83;;;3.60;;
9449;SDS011;4763;48.370;10.874;2023-06-05T00:28:58;7.53;;;3.77;;
9449;SDS011;4763;48.370;10.874;2023-06-05T00:31:25;5.10;;;3.83;;
9449;SDS011;4763;48.370;10.874;2023-06-05T00:33:52;4.57;;;3.60;;
9449;SDS011;4763;48.370;10.874;2023-06-05T00:36:20;6.23;;;3.73;;
9449;SDS011;4763;48.370;10.874;2023-06-05T00:38:47;5.23;;;3.90;;
9449;SDS011;4763;48.370;10.874;2023-06-05T00:41:14;5.33;;;3.83;;
9449;SDS011;4763;48.370;10.874;2023-06-05T00:43:41;5.07;;;3.63;;
9449;SDS011;4763;48.370;10.874;2023-06-05T00:46:08;5.50;;;3.73;;
9449;SDS011;4763;48.370;10.874;2023-06-05T00:48:36;5.00;;;3.77;;
9449;SDS011;4763;48.370;10.874;2023-06-05T00:51:05;8.50;;;3.63;;
9449;SDS011;4763;48.370;10.874;2023-06-05T00:53:36;5.33;;;3.50;;
9449;SDS011;4763;48.370;10.874;2023-06-05T00:56:05;7.40;;;4.43;;
9449;SDS011;4763;48.370;10.874;2023-06-05T00:58:32;5.47;;;3.63;;
9449;SDS011;4763;48.370;10.874;2023-06-05T01:00:59;5.13;;;3.70;;
9449;SDS011;4763;48.370;10.874;2023-06-05T01:03:29;4.53;;;3.43;;
9449;SDS011;4763;48.370;10.874;2023-06-05T01:05:58;4.27;;;3.27;;
9449;SDS011;4763;48.370;10.874;2023-06-05T01:08:29;5.00;;;3.50;;
9449;SDS011;4763;48.370;10.874;2023-06-05T01:11:05;7.97;;;3.97;;
9449;SDS011;4763;48.370;10.874;2023-06-05T01:13:41;6.00;;;3.60;;
9449;SDS011;4763;48.370;10.874;2023-06-05T01:16:12;5.10;;;3.60;;
9449;SDS011;4763;48.370;10.874;2023-06-05T01:18:40;4.43;;;3.20;;
9449;SDS011;4763;48.370;10.874;2023-06-05T01:21:11;8.20;;;4.07;;
9449;SDS011;4763;48.370;10.874;2023-06-05T01:23:43;7.83;;;3.80;;
9449;SDS011;4763;48.370;10.874;2023-06-05T01:26:11;5.50;;;3.80;;
9449;SDS011;4763;48.370;10.874;2023-06-05T01:28:44;6.87;;;3.33;;
9449;SDS011;4763;48.370;10.874;2023-06-05T01:31:16;4.97;;;3.23;;
9449;SDS011;4763;48.370;10.874;2023-06-05T01:33:51;6.10;;;3.43;;
9449;SDS011;4763;48.370;10.874;2023-06-05T01:36:23;5.07;;;3.73;;
9449;SDS011;4763;48.370;10.874;2023-06-05T01:38:55;7.20;;;3.30;;
9449;SDS011;4763;48.370;10.874;2023-06-05T01:41:23;5.40;;;3.37;;
9449;SDS011;4763;48.370;10.874;2023-06-05T01:43:57;5.47;;;3.73;;
9449;SDS011;4763;48.370;10.874;2023-06-05T01:46:30;5.83;;;3.30;;
9449;SDS011;4763;48.370;10.874;2023-06-05T01:48:58;7.73;;;3.63;;
9449;SDS011;4763;48.370;10.874;2023-06-05T01:51:28;4.63;;;3.53;;
9449;SDS011;4763;48.370;10.874;2023-06-05T01:53:56;4.73;;;3.10;;
9449;SDS011;4763;48.370;10.874;2023-06-05T01:56:23;5.00;;;3.43;;
9449;SDS011;4763;48.370;10.874;2023-06-05T01:58:52;4.83;;;3.07;;
9449;SDS011;4763;48.370;10.874;2023-06-05T02:01:19;3.87;;;3.20;;
9449;SDS011;4763;48.370;10.874;2023-06-05T02:03:48;4.37;;;3.57;;
9449;SDS011;4763;48.370;10.874;2023-06-05T02:06:15;4.43;;;3.33;;
9449;SDS011;4763;48.370;10.874;2023-06-05T02:08:42;7.30;;;3.40;;
9449;SDS011;4763;48.370;10.874;2023-06-05T02:11:10;8.63;;;4.00;;
9449;SDS011;4763;48.370;10.874;2023-06-05T02:13:37;6.97;;;3.30;;
9449;SDS011;4763;48.370;10.874;2023-06-05T02:16:07;5.27;;;3.23;;
9449;SDS011;4763;48.370;10.874;2023-06-05T02:18:35;4.60;;;3.47;;
9449;SDS011;4763;48.370;10.874;2023-06-05T02:21:03;4.97;;;3.23;;
9449;SDS011;4763;48.370;10.874;2023-06-05T02:23:31;5.17;;;3.50;;
9449;SDS011;4763;48.370;10.874;2023-06-05T02:25:57;5.33;;;3.20;;
9449;SDS011;4763;48.370;10.874;2023-06-05T02:28:27;5.67;;;3.50;;
9449;SDS011;4763;48.370;10.874;2023-06-05T02:30:54;6.67;;;3.77;;
9449;SDS011;4763;48.370;10.874;2023-06-05T02:33:21;6.77;;;3.30;;
9449;SDS011;4763;48.370;10.874;2023-06-05T02:35:49;5.37;;;3.13;;
9449;SDS011;4763;48.370;10.874;2023-06-05T02:38:15;5.07;;;3.70;;
9449;SDS011;4763;48.370;10.874;2023-06-05T02:40:42;5.27;;;3.67;;
9449;SDS011;4763;48.370;10.874;2023-06-05T02:43:09;4.33;;;3.27;;
9449;SDS011;4763;48.370;10.874;2023-06-05T02:45:38;4.80;;;3.03;;
9449;SDS011;4763;48.370;10.874;2023-06-05T02:48:06;4.77;;;3.23;;
9449;SDS011;4763;48.370;10.874;2023-06-05T02:50:32;4.40;;;3.43;;
9449;SDS011;4763;48.370;10.874;2023-06-05T02:53:04;5.03;;;3.60;;
9449;SDS011;4763;48.370;10.874;2023-06-05T02:55:31;4.03;;;3.07;;
9449;SDS011;4763;48.370;10.874;2023-06-05T02:58:02;4.07;;;3.33;;
9449;SDS011;4763;48.370;10.874;2023-06-05T03:00:28;3.33;;;2.80;;
9449;SDS011;4763;48.370;10.874;2023-06-05T03:02:58;5.90;;;2.97;;
9449;SDS011;4763;48.370;10.874;2023-06-05T03:05:29;4.60;;;3.40;;
9449;SDS011;4763;48.370;10.874;2023-06-05T03:07:56;5.53;;;3.33;;
9449;SDS011;4763;48.370;10.874;2023-06-05T03:10:23;4.63;;;3.10;;
9449;SDS011;4763;48.370;10.874;2023-06-05T03:12:49;4.90;;;4.03;;
9449;SDS011;4763;48.370;10.874;2023-06-05T03:15:16;4.40;;;3.30;;
9449;SDS011;4763;48.370;10.874;2023-06-05T03:17:43;6.90;;;3.10;;
9449;SDS011;4763;48.370;10.874;2023-06-05T03:20:12;8.90;;;3.73;;
9449;SDS011;4763;48.370;10.874;2023-06-05T03:22:43;5.67;;;3.57;;
9449;SDS011;4763;48.370;10.874;2023-06-05T03:25:10;3.97;;;2.90;;
9449;SDS011;4763;48.370;10.874;2023-06-05T03:27:37;5.70;;;3.70;;
9449;SDS011;4763;48.370;10.874;2023-06-05T03:30:04;4.27;;;3.67;;
9449;SDS011;4763;48.370;10.874;2023-06-05T03:32:33;5.83;;;3.93;;
9449;SDS011;4763;48.370;10.874;2023-06-05T03:35:00;4.90;;;2.90;;
9449;SDS011;4763;48.370;10.874;2023-06-05T03:37:28;4.67;;;3.57;;
9449;SDS011;4763;48.370;10.874;2023-06-05T03:39:55;6.13;;;3.73;;
9449;SDS011;4763;48.370;10.874;2023-06-05T03:42:22;4.97;;;3.83;;
9449;SDS011;4763;48.370;10.874;2023-06-05T03:44:49;6.50;;;4.20;;
9449;SDS011;4763;48.370;10.874;2023-06-05T03:47:16;4.30;;;3.20;;
9449;SDS011;4763;48.370;10.874;2023-06-05T03:49:46;4.43;;;3.93;;
9449;SDS011;4763;48.370;10.874;2023-06-05T03:52:15;7.13;;;3.97;;
9449;SDS011;4763;48.370;10.874;2023-06-05T03:54:43;5.57;;;3.97;;
9449;SDS011;4763;48.370;10.874;2023-06-05T03:57:12;7.10;;;3.80;;
9449;SDS011;4763;48.370;10.874;2023-06-05T03:59:39;4.63;;;3.67;;
9449;SDS011;4763;48.370;10.874;2023-06-05T04:02:06;7.53;;;3.87;;
9449;SDS011;4763;48.370;10.874;2023-06-05T04:04:33;6.70;;;3.57;;
9449;SDS011;4763;48.370;10.874;2023-06-05T04:07:00;5.83;;;3.50;;
9449;SDS011;4763;48.370;10.874;2023-06-05T04:09:26;4.43;;;3.57;;
9449;SDS011;4763;48.370;10.874;2023-06-05T04:11:55;9.60;;;4.17;;
9449;SDS011;4763;48.370;10.874;2023-06-05T04:14:21;7.40;;;3.60;;
9449;SDS011;4763;48.370;10.874;2023-06-05T04:16:48;4.73;;;3.60;;
9449;SDS011;4763;48.370;10.874;2023-06-05T04:19:15;4.93;;;3.87;;
9449;SDS011;4763;48.370;10.874;2023-06-05T04:21:42;6.70;;;4.00;;
9449;SDS011;4763;48.370;10.874;2023-06-05T04:24:08;4.87;;;3.67;;
9449;SDS011;4763;48.370;10.874;2023-06-05T04:26:36;6.90;;;4.20;;
9449;SDS011;4763;48.370;10.874;2023-06-05T04:29:04;6.87;;;4.00;;
9449;SDS011;4763;48.370;10.874;2023-06-05T04:31:35;5.50;;;3.27;;
9449;SDS011;4763;48.370;10.874;2023-06-05T04:34:05;6.27;;;3.80;;
9449;SDS011;4763;48.370;10.874;2023-06-05T04:36:32;5.67;;;3.70;;
9449;SDS011;4763;48.370;10.874;2023-06-05T04:38:59;9.13;;;3.87;;
9449;SDS011;4763;48.370;10.874;2023-06-05T04:41:29;5.50;;;3.47;;
9449;SDS011;4763;48.370;10.874;2023-06-05T04:43:57;5.93;;;3.80;;
9449;SDS011;4763;48.370;10.874;2023-06-05T04:46:27;4.83;;;3.63;;
9449;SDS011;4763;48.370;10.874;2023-06-05T04:48:56;4.17;;;3.47;;
9449;SDS011;4763;48.370;10.874;2023-06-05T04:51:29;4.67;;;3.70;;
9449;SDS011;4763;48.370;10.874;2023-06-05T04:54:02;5.37;;;4.00;;
9449;SDS011;4763;48.370;10.874;2023-06-05T04:56:30;5.27;;;3.77;;
9449;SDS011;4763;48.370;10.874;2023-06-05T04:58:57;5.20;;;3.80;;
9449;SDS011;4763;48.370;10.874;2023-06-05T05:01:25;7.17;;;3.73;;
9449;SDS011;4763;48.370;10.874;2023-06-05T05:03:52;6.87;;;3.57;;
9449;SDS011;4763;48.370;10.874;2023-06-05T05:06:19;4.90;;;3.90;;
9449;SDS011;4763;48.370;10.874;2023-06-05T05:08:47;7.00;;;4.83;;
9449;SDS011;4763;48.370;10.874;2023-06-05T05:11:14;4.90;;;3.53;;
9449;SDS011;4763;48.370;10.874;2023-06-05T05:13:41;7.07;;;3.97;;
9449;SDS011;4763;48.370;10.874;2023-06-05T05:16:09;8.00;;;4.00;;
9449;SDS011;4763;48.370;10.874;2023-06-05T05:18:39;6.03;;;4.00;;
9449;SDS011;4763;48.370;10.874;2023-06-05T05:21:07;4.53;;;3.87;;
9449;SDS011;4763;48.370;10.874;2023-06-05T05:23:33;5.17;;;4.27;;
9449;SDS011;4763;48.370;10.874;2023-06-05T05:26:00;6.53;;;4.40;;
9449;SDS011;4763;48.370;10.874;2023-06-05T05:28:30;6.57;;;4.83;;
9449;SDS011;4763;48.370;10.874;2023-06-05T05:30:57;7.00;;;4.40;;
9449;SDS011;4763;48.370;10.874;2023-06-05T05:33:25;6.17;;;4.50;;
9449;SDS011;4763;48.370;10.874;2023-06-05T05:35:53;5.77;;;4.47;;
9449;SDS011;4763;48.370;10.874;2023-06-05T05:38:20;4.93;;;3.90;;
9449;SDS011;4763;48.370;10.874;2023-06-05T05:40:47;5.10;;;3.93;;
9449;SDS011;4763;48.370;10.874;2023-06-05T05:43:16;6.20;;;3.93;;
9449;SDS011;4763;48.370;10.874;2023-06-05T05:45:43;6.07;;;4.23;;
9449;SDS011;4763;48.370;10.874;2023-06-05T05:48:10;8.07;;;3.77;;
9449;SDS011;4763;48.370;10.874;2023-06-05T05:50:37;5.33;;;3.83;;
9449;SDS011;4763;48.370;10.874;2023-06-05T05:53:10;5.90;;;4.37;;
9449;SDS011;4763;48.370;10.874;2023-06-05T05:55:37;5.53;;;4.30;;
9449;SDS011;4763;48.370;10.874;2023-06-05T05:58:04;7.37;;;5.17;;
9449;SDS011;4763;48.370;10.874;2023-06-05T06:00:30;9.60;;;4.87;;
9449;SDS011;4763;48.370;10.874;2023-06-05T06:03:00;6.10;;;4.70;;
9449;SDS011;4763;48.370;10.874;2023-06-05T06:05:27;8.80;;;5.23;;
9449;SDS011;4763;48.370;10.874;2023-06-05T06:07:55;5.80;;;3.90;;
9449;SDS011;4763;48.370;10.874;2023-06-05T06:10:25;9.37;;;4.00;;
9449;SDS011;4763;48.370;10.874;2023-06-05T06:12:52;7.50;;;4.17;;
9449;SDS011;4763;48.370;10.874;2023-06-05T06:15:19;5.03;;;4.33;;
9449;SDS011;4763;48.370;10.874;2023-06-05T06:17:46;6.20;;;4.20;;
9449;SDS011;4763;48.370;10.874;2023-06-05T06:20:12;7.30;;;4.17;;
9449;SDS011;4763;48.370;10.874;2023-06-05T06:22:40;4.63;;;3.87;;
9449;SDS011;4763;48.370;10.874;2023-06-05T06:25:08;8.37;;;4.43;;
9449;SDS011;4763;48.370;10.874;2023-06-05T06:27:38;6.47;;;4.00;;
9449;SDS011;4763;48.370;10.874;2023-06-05T06:30:05;9.10;;;4.03;;
9449;SDS011;4763;48.370;10.874;2023-06-05T06:32:32;5.80;;;3.63;;
9449;SDS011;4763;48.370;10.874;2023-06-05T06:34:59;4.50;;;3.87;;
9449;SDS011;4763;48.370;10.874;2023-06-05T06:37:26;4.30;;;3.73;;
9449;SDS011;4763;48.370;10.874;2023-06-05T06:39:53;6.10;;;3.60;;
9449;SDS011;4763;48.370;10.874;2023-06-05T06:42:20;6.03;;;3.93;;
9449;SDS011;4763;48.370;10.874;2023-06-05T06:44:48;4.37;;;3.63;;
9449;SDS011;4763;48.370;10.874;2023-06-05T06:47:20;3.53;;;3.00;;
9449;SDS011;4763;48.370;10.874;2023-06-05T06:49:47;5.37;;;3.67;;
9449;SDS011;4763;48.370;10.874;2023-06-05T06:52:14;5.53;;;3.33;;
9449;SDS011;4763;48.370;10.874;2023-06-05T06:54:43;7.70;;;3.20;;
9449;SDS011;4763;48.370;10.874;2023-06-05T06:57:10;5.00;;;3.60;;
9449;SDS011;4763;48.370;10.874;2023-06-05T06:59:37;5.27;;;3.20;;
9449;SDS011;4763;48.370;10.874;2023-06-05T07:02:10;4.73;;;3.57;;
9449;SDS011;4763;48.370;10.874;2023-06-05T07:04:39;4.53;;;3.37;;
9449;SDS011;4763;48.370;10.874;2023-06-05T07:07:07;5.00;;;3.40;;
9449;SDS011;4763;48.370;10.874;2023-06-05T07:09:35;6.90;;;3.83;;
9449;SDS011;4763;48.370;10.874;2023-06-05T07:12:02;5.17;;;3.70;;
9449;SDS011;4763;48.370;10.874;2023-06-05T07:14:31;4.57;;;3.65;;
9449;SDS011;4763;48.370;10.874;2023-06-05T07:16:58;4.53;;;3.47;;
9449;SDS011;4763;48.370;10.874;2023-06-05T07:19:27;6.30;;;3.20;;
9449;SDS011;4763;48.370;10.874;2023-06-05T07:21:54;6.38;;;3.45;;
9449;SDS011;4763;48.370;10.874;2023-06-05T07:24:22;5.45;;;3.53;;
9449;SDS011;4763;48.370;10.874;2023-06-05T07:26:50;4.38;;;3.22;;
9449;SDS011;4763;48.370;10.874;2023-06-05T07:29:18;5.40;;;3.55;;
9449;SDS011;4763;48.370;10.874;2023-06-05T07:31:45;4.72;;;3.90;;
9449;SDS011;4763;48.370;10.874;2023-06-05T07:34:12;7.55;;;4.30;;
9449;SDS011;4763;48.370;10.874;2023-06-05T07:36:41;8.88;;;3.80;;
9449;SDS011;4763;48.370;10.874;2023-06-05T07:39:10;4.72;;;3.45;;
9449;SDS011;4763;48.370;10.874;2023-06-05T07:41:37;6.07;;;3.88;;
9449;SDS011;4763;48.370;10.874;2023-06-05T07:44:05;5.38;;;3.65;;
9449;SDS011;4763;48.370;10.874;2023-06-05T07:46:32;4.35;;;3.30;;
9449;SDS011;4763;48.370;10.874;2023-06-05T07:48:58;10.45;;;3.45;;
9449;SDS011;4763;48.370;10.874;2023-06-05T07:51:25;5.88;;;3.45;;
9449;SDS011;4763;48.370;10.874;2023-06-05T07:53:53;4.78;;;3.10;;
9449;SDS011;4763;48.370;10.874;2023-06-05T07:56:20;5.07;;;3.78;;
9449;SDS011;4763;48.370;10.874;2023-06-05T07:58:48;4.13;;;3.45;;
9449;SDS011;4763;48.370;10.874;2023-06-05T08:01:17;5.32;;;3.60;;
9449;SDS011;4763;48.370;10.874;2023-06-05T08:03:45;4.35;;;3.47;;
9449;SDS011;4763;48.370;10.874;2023-06-05T08:06:12;5.20;;;3.08;;
9449;SDS011;4763;48.370;10.874;2023-06-05T08:08:39;6.47;;;3.35;;
9449;SDS011;4763;48.370;10.874;2023-06-05T08:11:08;4.50;;;3.58;;
9449;SDS011;4763;48.370;10.874;2023-06-05T08:13:36;4.80;;;3.60;;
9449;SDS011;4763;48.370;10.874;2023-06-05T08:16:05;4.47;;;3.50;;
9449;SDS011;4763;48.370;10.874;2023-06-05T08:18:31;4.95;;;3.47;;
9449;SDS011;4763;48.370;10.874;2023-06-05T08:20:58;2.95;;;2.65;;
9449;SDS011;4763;48.370;10.874;2023-06-05T08:23:25;7.95;;;3.22;;
9449;SDS011;4763;48.370;10.874;2023-06-05T08:25:52;5.53;;;3.70;;
9449;SDS011;4763;48.370;10.874;2023-06-05T08:28:20;5.05;;;3.80;;
9449;SDS011;4763;48.370;10.874;2023-06-05T08:30:47;5.32;;;2.95;;
9449;SDS011;4763;48.370;10.874;2023-06-05T08:33:14;5.88;;;3.22;;
9449;SDS011;4763;48.370;10.874;2023-06-05T08:35:41;7.07;;;3.72;;
9449;SDS011;4763;48.370;10.874;2023-06-05T08:38:07;5.00;;;3.17;;
9449;SDS011;4763;48.370;10.874;2023-06-05T08:40:34;6.10;;;3.40;;
9449;SDS011;4763;48.370;10.874;2023-06-05T08:43:03;3.65;;;3.17;;
9449;SDS011;4763;48.370;10.874;2023-06-05T08:45:31;5.70;;;3.35;;
9449;SDS011;4763;48.370;10.874;2023-06-05T08:47:58;6.47;;;3.22;;
9449;SDS011;4763;48.370;10.874;2023-06-05T08:50:26;8.68;;;3.33;;
9449;SDS011;4763;48.370;10.874;2023-06-05T08:52:55;3.63;;;2.83;;
9449;SDS011;4763;48.370;10.874;2023-06-05T08:55:24;4.75;;;3.13;;
9449;SDS011;4763;48.370;10.874;2023-06-05T08:57:52;5.00;;;3.55;;
9449;SDS011;4763;48.370;10.874;2023-06-05T09:00:19;6.03;;;3.10;;
9449;SDS011;4763;48.370;10.874;2023-06-05T09:02:48;4.45;;;3.00;;
9449;SDS011;4763;48.370;10.874;2023-06-05T09:05:15;4.88;;;3.03;;
9449;SDS011;4763;48.370;10.874;2023-06-05T09:07:42;4.57;;;3.30;;
9449;SDS011;4763;48.370;10.874;2023-06-05T09:10:21;5.07;;;3.40;;
9449;SDS011;4763;48.370;10.874;2023-06-05T09:12:52;5.22;;;3.40;;
9449;SDS011;4763;48.370;10.874;2023-06-05T09:15:20;7.60;;;3.47;;
9449;SDS011;4763;48.370;10.874;2023-06-05T09:17:50;8.18;;;3.08;;
9449;SDS011;4763;48.370;10.874;2023-06-05T09:20:28;5.65;;;2.92;;
9449;SDS011;4763;48.370;10.874;2023-06-05T09:22:56;4.72;;;3.15;;
9449;SDS011;4763;48.370;10.874;2023-06-05T09:25:23;4.50;;;3.42;;
9449;SDS011;4763;48.370;10.874;2023-06-05T09:27:59;4.30;;;3.08;;
9449;SDS011;4763;48.370;10.874;2023-06-05T09:30:32;4.32;;;3.20;;
9449;SDS011;4763;48.370;10.874;2023-06-05T09:33:08;6.80;;;3.05;;
9449;SDS011;4763;48.370;10.874;2023-06-05T09:35:35;4.97;;;2.70;;
9449;SDS011;4763;48.370;10.874;2023-06-05T09:38:03;5.30;;;2.83;;
9449;SDS011;4763;48.370;10.874;2023-06-05T09:40:50;3.65;;;2.80;;
9449;SDS011;4763;48.370;10.874;2023-06-05T09:43:20;5.00;;;3.25;;
9449;SDS011;4763;48.370;10.874;2023-06-05T09:45:48;6.18;;;2.95;;
9449;SDS011;4763;48.370;10.874;2023-06-05T09:48:17;3.42;;;2.78;;
9449;SDS011;4763;48.370;10.874;2023-06-05T09:50:44;4.72;;;2.50;;
9449;SDS011;4763;48.370;10.874;2023-06-05T09:53:10;3.38;;;3.05;;
9449;SDS011;4763;48.370;10.874;2023-06-05T09:55:41;3.97;;;2.92;;
9449;SDS011;4763;48.370;10.874;2023-06-05T09:58:08;4.32;;;3.22;;
9449;SDS011;4763;48.370;10.874;2023-06-05T10:00:39;5.18;;;3.10;;
9449;SDS011;4763;48.370;10.874;2023-06-05T10:03:07;3.47;;;2.58;;
9449;SDS011;4763;48.370;10.874;2023-06-05T10:05:40;3.65;;;2.72;;
9449;SDS011;4763;48.370;10.874;2023-06-05T10:08:10;3.00;;;2.70;;
9449;SDS011;4763;48.370;10.874;2023-06-05T10:10:38;2.88;;;2.47;;
9449;SDS011;4763;48.370;10.874;2023-06-05T10:13:05;6.63;;;2.65;;
9449;SDS011;4763;48.370;10.874;2023-06-05T10:15:32;3.65;;;2.72;;
9449;SDS011;4763;48.370;10.874;2023-06-05T10:18:02;3.60;;;2.63;;
9449;SDS011;4763;48.370;10.874;2023-06-05T10:20:30;3.40;;;2.47;;
9449;SDS011;4763;48.370;10.874;2023-06-05T10:22:59;2.78;;;2.45;;
9449;SDS011;4763;48.370;10.874;2023-06-05T10:25:29;10.38;;;3.00;;
9449;SDS011;4763;48.370;10.874;2023-06-05T10:28:05;3.90;;;2.35;;
9449;SDS011;4763;48.370;10.874;2023-06-05T10:30:54;3.20;;;2.00;;
9449;SDS011;4763;48.370;10.874;2023-06-05T10:33:43;4.05;;;2.63;;
9449;SDS011;4763;48.370;10.874;2023-06-05T10:36:21;2.78;;;2.47;;
9449;SDS011;4763;48.370;10.874;2023-06-05T10:39:06;4.55;;;2.30;;
9449;SDS011;4763;48.370;10.874;2023-06-05T10:41:34;3.65;;;2.28;;
9449;SDS011;4763;48.370;10.874;2023-06-05T10:44:02;6.05;;;2.38;;
9449;SDS011;4763;48.370;10.874;2023-06-05T10:46:32;5.60;;;2.90;;
9449;SDS011;4763;48.370;10.874;2023-06-05T10:49:06;3.13;;;2.60;;
9449;SDS011;4763;48.370;10.874;2023-06-05T10:51:40;5.47;;;2.75;;
9449;SDS011;4763;48.370;10.874;2023-06-05T10:54:11;4.85;;;3.28;;
9449;SDS011;4763;48.370;10.874;2023-06-05T10:56:58;4.07;;;2.88;;
9449;SDS011;4763;48.370;10.874;2023-06-05T10:59:27;5.38;;;2.80;;
9449;SDS011;4763;48.370;10.874;2023-06-05T11:07:33;5.07;;;2.85;;
9449;SDS011;4763;48.370;10.874;2023-06-05T11:10:05;3.45;;;2.38;;
9449;SDS011;4763;48.370;10.874;2023-06-05T11:15:35;4.03;;;2.92;;
9449;SDS011;4763;48.370;10.874;2023-06-05T11:20:59;4.07;;;3.47;;
9449;SDS011;4763;48.370;10.874;2023-06-05T11:23:27;3.28;;;2.63;;
9449;SDS011;4763;48.370;10.874;2023-06-05T11:25:56;3.60;;;2.95;;
9449;SDS011;4763;48.370;10.874;2023-06-05T11:28:44;5.47;;;3.22;;
9449;SDS011;4763;48.370;10.874;2023-06-05T11:31:11;4.47;;;2.72;;
9449;SDS011;4763;48.370;10.874;2023-06-05T11:33:38;3.60;;;2.78;;
9449;SDS011;4763;48.370;10.874;2023-06-05T11:36:05;4.47;;;2.30;;
9449;SDS011;4763;48.370;10.874;2023-06-05T11:38:37;6.15;;;2.78;;
9449;SDS011;4763;48.370;10.874;2023-06-05T11:41:08;6.05;;;2.63;;
9449;SDS011;4763;48.370;10.874;2023-06-05T11:43:41;3.53;;;2.92;;
9449;SDS011;4763;48.370;10.874;2023-06-05T11:46:09;3.42;;;2.55;;
9449;SDS011;4763;48.370;10.874;2023-06-05T11:48:37;5.45;;;2.83;;
9449;SDS011;4763;48.370;10.874;2023-06-05T11:51:09;3.00;;;2.40;;
9449;SDS011;4763;48.370;10.874;2023-06-05T11:53:35;4.93;;;3.28;;
9449;SDS011;4763;48.370;10.874;2023-06-05T11:56:13;3.25;;;2.65;;
9449;SDS011;4763;48.370;10.874;2023-06-05T11:58:41;5.50;;;2.67;;
9449;SDS011;4763;48.370;10.874;2023-06-05T12:01:10;4.20;;;2.92;;
9449;SDS011;4763;48.370;10.874;2023-06-05T12:03:40;3.70;;;2.90;;
9449;SDS011;4763;48.370;10.874;2023-06-05T12:06:06;5.53;;;3.40;;
9449;SDS011;4763;48.370;10.874;2023-06-05T12:08:34;6.05;;;2.95;;
9449;SDS011;4763;48.370;10.874;2023-06-05T12:11:18;3.47;;;2.85;;
9449;SDS011;4763;48.370;10.874;2023-06-05T12:13:48;3.25;;;2.80;;
9449;SDS011;4763;48.370;10.874;2023-06-05T12:16:15;3.17;;;2.60;;
9449;SDS011;4763;48.370;10.874;2023-06-05T12:18:42;4.60;;;3.00;;
9449;SDS011;4763;48.370;10.874;2023-06-05T12:21:22;7.93;;;3.38;;
9449;SDS011;4763;48.370;10.874;2023-06-05T12:23:50;6.13;;;2.85;;
9449;SDS011;4763;48.370;10.874;2023-06-05T12:26:17;2.75;;;2.38;;
9449;SDS011;4763;48.370;10.874;2023-06-05T12:28:45;2.58;;;2.38;;
9449;SDS011;4763;48.370;10.874;2023-06-05T12:33:58;4.03;;;3.03;;
9449;SDS011;4763;48.370;10.874;2023-06-05T12:36:24;3.78;;;3.30;;
9449;SDS011;4763;48.370;10.874;2023-06-05T12:38:53;3.80;;;2.70;;
9449;SDS011;4763;48.370;10.874;2023-06-05T12:41:20;5.63;;;2.50;;
9449;SDS011;4763;48.370;10.874;2023-06-05T12:43:59;4.18;;;3.03;;
9449;SDS011;4763;48.370;10.874;2023-06-05T12:46:27;4.20;;;3.20;;
9449;SDS011;4763;48.370;10.874;2023-06-05T12:48:54;5.97;;;3.17;;
9449;SDS011;4763;48.370;10.874;2023-06-05T12:51:22;3.50;;;2.65;;
9449;SDS011;4763;48.370;10.874;2023-06-05T12:53:51;4.97;;;2.75;;
9449;SDS011;4763;48.370;10.874;2023-06-05T12:56:17;6.05;;;3.08;;
9449;SDS011;4763;48.370;10.874;2023-06-05T12:58:48;6.47;;;2.92;;
9449;SDS011;4763;48.370;10.874;2023-06-05T13:01:16;6.70;;;3.25;;
9449;SDS011;4763;48.370;10.874;2023-06-05T13:03:43;3.92;;;3.03;;
9449;SDS011;4763;48.370;10.874;2023-06-05T13:06:10;4.25;;;3.08;;
9449;SDS011;4763;48.370;10.874;2023-06-05T13:08:37;4.25;;;2.80;;
9449;SDS011;4763;48.370;10.874;2023-06-05T13:11:04;3.75;;;3.08;;
9449;SDS011;4763;48.370;10.874;2023-06-05T13:13:31;4.70;;;2.80;;
9449;SDS011;4763;48.370;10.874;2023-06-05T13:15:58;5.80;;;2.92;;
9449;SDS011;4763;48.370;10.874;2023-06-05T13:18:26;7.28;;;3.70;;
9449;SDS011;4763;48.370;10.874;2023-06-05T13:20:53;3.70;;;2.75;;
9449;SDS011;4763;48.370;10.874;2023-06-05T13:23:20;4.22;;;3.38;;
9449;SDS011;4763;48.370;10.874;2023-06-05T13:25:47;3.72;;;3.08;;
9449;SDS011;4763;48.370;10.874;2023-06-05T13:28:13;3.08;;;2.47;;
9449;SDS011;4763;48.370;10.874;2023-06-05T13:30:40;3.30;;;2.15;;
9449;SDS011;4763;48.370;10.874;2023-06-05T13:33:07;3.40;;;3.10;;
9449;SDS011;4763;48.370;10.874;2023-06-05T13:35:35;3.60;;;2.97;;
9449;SDS011;4763;48.370;10.874;2023-06-05T13:38:01;8.63;;;3.45;;
9449;SDS011;4763;48.370;10.874;2023-06-05T13:40:28;4.80;;;2.92;;
9449;SDS011;4763;48.370;10.874;2023-06-05T13:42:57;5.40;;;2.80;;
9449;SDS011;4763;48.370;10.874;2023-06-05T13:45:24;4.95;;;2.58;;
9449;SDS011;4763;48.370;10.874;2023-06-05T13:47:51;3.42;;;2.97;;
9449;SDS011;4763;48.370;10.874;2023-06-05T13:50:18;3.83;;;3.00;;
9449;SDS011;4763;48.370;10.874;2023-06-05T13:52:46;6.55;;;3.20;;
9449;SDS011;4763;48.370;10.874;2023-06-05T13:55:13;5.70;;;3.03;;
9449;SDS011;4763;48.370;10.874;2023-06-05T13:57:40;4.13;;;3.20;;
9449;SDS011;4763;48.370;10.874;2023-06-05T14:00:07;6.00;;;3.28;;
9449;SDS011;4763;48.370;10.874;2023-06-05T14:02:36;4.00;;;3.20;;
9449;SDS011;4763;48.370;10.874;2023-06-05T14:05:03;5.47;;;3.42;;
9449;SDS011;4763;48.370;10.874;2023-06-05T14:07:30;4.47;;;2.88;;
9449;SDS011;4763;48.370;10.874;2023-06-05T14:09:58;7.47;;;3.63;;
9449;SDS011;4763;48.370;10.874;2023-06-05T14:12:26;5.57;;;3.03;;
9449;SDS011;4763;48.370;10.874;2023-06-05T14:14:53;5.03;;;3.03;;
9449;SDS011;4763;48.370;10.874;2023-06-05T14:17:20;10.45;;;3.90;;
9449;SDS011;4763;48.370;10.874;2023-06-05T14:19:46;4.00;;;3.38;;
9449;SDS011;4763;48.370;10.874;2023-06-05T14:22:13;8.15;;;3.30;;
9449;SDS011;4763;48.370;10.874;2023-06-05T14:24:40;4.90;;;3.50;;
9449;SDS011;4763;48.370;10.874;2023-06-05T14:27:08;4.82;;;2.90;;
9449;SDS011;4763;48.370;10.874;2023-06-05T14:29:37;3.08;;;2.75;;
9449;SDS011;4763;48.370;10.874;2023-06-05T14:32:04;7.60;;;3.53;;
9449;SDS011;4763;48.370;10.874;2023-06-05T14:34:31;7.00;;;3.53;;
9449;SDS011;4763;48.370;10.874;2023-06-05T14:36:58;3.92;;;3.10;;
9449;SDS011;4763;48.370;10.874;2023-06-05T14:39:25;6.72;;;3.10;;
9449;SDS011;4763;48.370;10.874;2023-06-05T14:41:52;4.20;;;3.25;;
9449;SDS011;4763;48.370;10.874;2023-06-05T14:44:20;6.40;;;3.45;;
9449;SDS011;4763;48.370;10.874;2023-06-05T14:46:46;5.97;;;3.22;;
9449;SDS011;4763;48.370;10.874;2023-06-05T14:49:13;4.22;;;3.10;;
9449;SDS011;4763;48.370;10.874;2023-06-05T14:51:40;4.45;;;3.45;;
9449;SDS011;4763;48.370;10.874;2023-06-05T14:54:07;10.95;;;3.25;;
9449;SDS011;4763;48.370;10.874;2023-06-05T14:56:37;5.53;;;3.50;;
9449;SDS011;4763;48.370;10.874;2023-06-05T14:59:03;12.25;;;4.25;;
9449;SDS011;4763;48.370;10.874;2023-06-05T15:01:31;4.03;;;2.85;;
9449;SDS011;4763;48.370;10.874;2023-06-05T15:03:58;4.18;;;3.00;;
9449;SDS011;4763;48.370;10.874;2023-06-05T15:06:25;3.78;;;2.83;;
9449;SDS011;4763;48.370;10.874;2023-06-05T15:08:51;3.90;;;3.15;;
9449;SDS011;4763;48.370;10.874;2023-06-05T15:11:18;4.60;;;3.10;;
9449;SDS011;4763;48.370;10.874;2023-06-05T15:13:46;4.35;;;3.22;;
9449;SDS011;4763;48.370;10.874;2023-06-05T15:16:12;3.63;;;2.83;;
9449;SDS011;4763;48.370;10.874;2023-06-05T15:18:40;4.65;;;3.22;;
9449;SDS011;4763;48.370;10.874;2023-06-05T15:21:07;4.47;;;3.67;;
9449;SDS011;4763;48.370;10.874;2023-06-05T15:23:34;4.28;;;3.00;;